createdAt,value
2023-04-11T00:01:49.932Z,92.53
2023-04-11T00:04:39.102Z,92.55
2023-04-11T00:07:24.376Z,93.05
2023-04-11T00:10:09.863Z,93.01
2023-04-11T00:12:56.736Z,93.72
2023-04-11T00:15:42.003Z,93.54
2023-04-11T00:18:27.035Z,94.06
2023-04-11T00:21:12.341Z,93.98
2023-04-11T00:23:57.313Z,94.51
2023-04-11T00:26:42.228Z,94.67
2023-04-11T00:29:28.030Z,95.13
2023-04-11T00:32:12.970Z,95.05
2023-04-11T00:34:59.171Z,95.52
2023-04-11T00:37:45.222Z,95.83
2023-04-11T00:40:30.396Z,95.84
2023-04-11T00:43:15.747Z,96.69
2023-04-11T00:46:01.133Z,96.37
2023-04-11T00:48:47.587Z,96.87
2023-04-11T00:51:32.735Z,97.20
2023-04-11T00:54:18.344Z,97.58
2023-04-11T00:57:04.668Z,97.70
2023-04-11T00:59:51.522Z,98.25
2023-04-11T01:02:43.231Z,98.51
2023-04-11T01:05:31.531Z,98.67
2023-04-11T01:08:17.563Z,98.76
2023-04-11T01:11:03.645Z,99.50
2023-04-11T01:13:50.636Z,99.51
2023-04-11T01:16:35.603Z,99.65
2023-04-11T01:19:22.204Z,99.84
2023-04-11T01:22:09.013Z,100.00
2023-04-11T01:24:54.002Z,100.00
2023-04-11T01:27:39.122Z,100.00
2023-04-11T01:30:24.132Z,100.00
2023-04-11T01:33:10.826Z,100.00
2023-04-11T01:35:55.867Z,100.00
2023-04-11T01:38:41.215Z,100.00
2023-04-11T01:41:27.586Z,100.00
2023-04-11T01:44:13.576Z,100.00
2023-04-11T01:46:58.660Z,100.00
2023-04-11T01:49:43.825Z,100.00
2023-04-11T01:52:28.770Z,100.00
2023-04-11T01:55:13.948Z,100.00
2023-04-11T01:57:58.982Z,100.00
2023-04-11T02:00:44.177Z,100.00
2023-04-11T02:03:29.670Z,100.00
2023-04-11T02:06:16.129Z,100.00
2023-04-11T02:09:01.138Z,100.00
2023-04-11T02:11:46.454Z,100.00
2023-04-11T02:14:58.023Z,100.00
2023-04-11T02:17:45.106Z,100.00
2023-04-11T02:20:30.314Z,100.00
2023-04-11T02:23:16.260Z,100.00
2023-04-11T02:26:02.377Z,100.00
2023-04-11T02:28:47.615Z,100.00
2023-04-11T02:31:32.699Z,100.00
2023-04-11T02:34:17.710Z,100.00
2023-04-11T02:37:02.970Z,100.00
2023-04-11T02:39:48.108Z,100.00
2023-04-11T02:42:33.175Z,100.00
2023-04-11T02:45:18.560Z,100.00
2023-04-11T02:48:03.965Z,100.00
2023-04-11T02:50:48.900Z,100.00
2023-04-11T02:53:34.193Z,100.00
2023-04-11T02:56:20.185Z,100.00
2023-04-11T02:59:06.739Z,100.00
2023-04-11T03:01:58.357Z,100.00
2023-04-11T03:04:43.643Z,100.00
2023-04-11T03:07:28.747Z,100.00
2023-04-11T03:10:13.965Z,100.00
2023-04-11T03:12:59.172Z,100.00
2023-04-11T03:15:44.346Z,100.00
2023-04-11T03:18:29.549Z,100.00
2023-04-11T03:21:14.855Z,100.00
2023-04-11T03:23:59.886Z,100.00
2023-04-11T03:26:45.178Z,100.00
2023-04-11T03:29:30.410Z,100.00
2023-04-11T03:32:15.570Z,100.00
2023-04-11T03:35:01.841Z,100.00
2023-04-11T03:37:48.064Z,100.00
2023-04-11T03:40:33.403Z,100.00
2023-04-11T03:43:19.193Z,100.00
2023-04-11T03:46:04.672Z,100.00
2023-04-11T03:48:50.042Z,100.00
2023-04-11T03:51:35.033Z,100.00
2023-04-11T03:54:20.897Z,100.00
2023-04-11T03:57:06.102Z,100.00
2023-04-11T03:59:51.324Z,100.00
2023-04-11T04:02:36.869Z,100.00
2023-04-11T04:05:22.225Z,100.00
2023-04-11T04:08:08.000Z,100.00
2023-04-11T04:10:52.799Z,100.00
2023-04-11T04:13:37.749Z,100.00
2023-04-11T04:16:22.607Z,100.00
2023-04-11T04:19:07.915Z,100.00
2023-04-11T04:21:53.727Z,100.00
2023-04-11T04:24:39.610Z,100.00
2023-04-11T04:27:25.164Z,100.00
2023-04-11T04:30:15.849Z,100.00
2023-04-11T04:33:01.033Z,100.00
2023-04-11T04:35:46.375Z,100.00
2023-04-11T04:38:32.848Z,100.00
2023-04-11T04:41:22.109Z,100.00
2023-04-11T04:44:09.779Z,100.00
2023-04-11T04:46:56.077Z,100.00
2023-04-11T04:49:41.631Z,100.00
2023-04-11T04:52:28.437Z,100.00
2023-04-11T04:55:14.226Z,100.00
2023-04-11T04:57:59.417Z,100.00
2023-04-11T05:00:44.725Z,100.00
2023-04-11T05:03:34.659Z,100.00
2023-04-11T05:06:20.026Z,100.00
2023-04-11T05:09:06.292Z,100.00
2023-04-11T05:11:51.707Z,100.00
2023-04-11T05:14:37.130Z,100.00
2023-04-11T05:17:25.379Z,100.00
2023-04-11T05:20:11.445Z,100.00
2023-04-11T05:22:56.910Z,100.00
2023-04-11T05:25:42.303Z,100.00
2023-04-11T05:28:27.422Z,100.00
2023-04-11T05:31:12.542Z,100.00
2023-04-11T05:33:58.681Z,100.00
2023-04-11T05:36:46.398Z,100.00
2023-04-11T05:39:31.524Z,100.00
2023-04-11T05:42:19.591Z,100.00
2023-04-11T05:45:04.853Z,100.00
2023-04-11T05:47:49.914Z,100.00
2023-04-11T05:50:35.975Z,100.00
2023-04-11T05:53:21.299Z,100.00
2023-04-11T05:56:07.145Z,100.00
2023-04-11T05:58:52.445Z,100.00
2023-04-11T06:01:39.728Z,100.00
2023-04-11T06:04:25.413Z,100.00
2023-04-11T06:07:11.004Z,100.00
2023-04-11T06:09:56.227Z,100.00
2023-04-11T06:12:41.592Z,100.00
2023-04-11T06:15:27.617Z,100.00
2023-04-11T06:18:13.568Z,100.00
2023-04-11T06:20:58.866Z,100.00
2023-04-11T06:23:44.017Z,100.00
2023-04-11T06:26:29.406Z,100.00
2023-04-11T06:29:14.717Z,100.00
2023-04-11T06:31:59.594Z,100.00
2023-04-11T06:34:45.059Z,100.00
2023-04-11T06:37:30.317Z,100.00
2023-04-11T06:40:17.267Z,100.00
2023-04-11T06:43:03.167Z,100.00
2023-04-11T06:45:49.709Z,100.00
2023-04-11T06:48:34.860Z,100.00
2023-04-11T06:51:20.057Z,100.00
2023-04-11T06:54:06.383Z,100.00
2023-04-11T06:56:52.058Z,100.00
2023-04-11T06:59:37.534Z,100.00
2023-04-11T07:02:25.203Z,100.00
2023-04-11T07:05:11.030Z,100.00
2023-04-11T07:07:56.228Z,100.00
2023-04-11T07:10:41.541Z,100.00
2023-04-11T07:13:26.471Z,100.00
2023-04-11T07:16:11.563Z,100.00
2023-04-11T07:18:59.192Z,100.00
2023-04-11T07:21:44.621Z,100.00
2023-04-11T07:24:30.568Z,100.00
2023-04-11T07:27:17.160Z,100.00
2023-04-11T07:30:03.532Z,99.41
2023-04-11T07:32:48.417Z,98.62
2023-04-11T07:35:34.809Z,98.24
2023-04-11T07:38:27.406Z,98.22
2023-04-11T07:41:12.272Z,96.67
2023-04-11T07:43:57.769Z,96.71
2023-04-11T07:46:43.173Z,96.46
2023-04-11T07:49:28.351Z,95.29
2023-04-11T07:52:14.506Z,93.96
2023-04-11T07:54:59.859Z,93.25
2023-04-11T07:57:44.802Z,93.10
2023-04-11T08:00:32.621Z,92.32
2023-04-11T08:03:17.975Z,91.63
2023-04-11T08:06:03.173Z,91.18
2023-04-11T08:08:49.270Z,89.74
2023-04-11T08:11:35.087Z,89.45
2023-04-11T08:14:20.317Z,88.24
2023-04-11T08:17:14.679Z,86.88
2023-04-11T08:20:09.783Z,87.14
2023-04-11T08:22:54.847Z,87.08
2023-04-11T08:25:40.322Z,86.22
2023-04-11T08:28:25.684Z,85.60
2023-04-11T08:31:12.670Z,84.99
2023-04-11T08:34:00.746Z,82.41
2023-04-11T08:36:46.275Z,82.77
2023-04-11T08:39:31.246Z,83.39
2023-04-11T08:42:28.044Z,82.00
2023-04-11T08:45:13.346Z,80.39
2023-04-11T08:47:58.382Z,80.03
2023-04-11T08:50:44.234Z,78.27
2023-04-11T08:53:30.458Z,77.99
2023-04-11T08:56:17.079Z,78.18
2023-04-11T08:59:03.173Z,78.32
2023-04-11T09:01:49.725Z,77.42
2023-04-11T09:04:42.923Z,78.23
2023-04-11T09:07:29.102Z,77.55
2023-04-11T09:10:20.944Z,76.96
2023-04-11T09:13:28.222Z,75.55
2023-04-11T09:16:13.990Z,75.07
2023-04-11T09:18:59.314Z,73.59
2023-04-11T09:21:50.175Z,71.26
2023-04-11T09:24:36.716Z,71.47
2023-04-11T09:27:24.505Z,69.79
2023-04-11T09:30:27.595Z,69.35
2023-04-11T09:33:25.489Z,68.75
2023-04-11T09:36:22.800Z,69.89
2023-04-11T09:39:18.546Z,69.14
2023-04-11T09:42:23.152Z,68.34
2023-04-11T09:45:19.877Z,67.16
2023-04-11T09:48:05.404Z,67.31
2023-04-11T09:50:51.757Z,65.20
2023-04-11T09:53:37.779Z,62.47
2023-04-11T09:56:24.078Z,62.15
2023-04-11T09:59:09.812Z,62.86
2023-04-11T10:01:56.846Z,63.16
2023-04-11T10:04:43.260Z,62.57
2023-04-11T10:07:29.976Z,62.74
2023-04-11T10:10:20.520Z,63.60
2023-04-11T10:13:44.361Z,63.26
2023-04-11T10:16:32.481Z,62.49
2023-04-11T10:19:17.921Z,62.06
2023-04-11T10:22:03.122Z,62.69
2023-04-11T10:25:21.189Z,62.54
2023-04-11T10:28:06.410Z,60.45
2023-04-11T10:31:09.026Z,60.57
2023-04-11T10:34:15.879Z,60.35
2023-04-11T10:37:04.496Z,60.92
2023-04-11T10:39:58.220Z,61.45
2023-04-11T10:42:44.514Z,61.24
2023-04-11T10:45:30.998Z,61.35
2023-04-11T10:48:16.325Z,61.11
2023-04-11T10:51:27.887Z,60.59
2023-04-11T10:54:25.637Z,61.59
2023-04-11T10:57:10.906Z,60.72
2023-04-11T10:59:57.087Z,62.80
2023-04-11T11:02:42.743Z,63.38
2023-04-11T11:05:28.140Z,62.48
2023-04-11T11:08:13.695Z,62.62
2023-04-11T11:11:04.135Z,62.58
2023-04-11T11:13:53.559Z,61.92
2023-04-11T11:16:38.736Z,62.21
2023-04-11T11:19:24.114Z,60.78
2023-04-11T11:22:18.366Z,59.71
2023-04-11T11:25:10.350Z,58.35
2023-04-11T11:28:07.361Z,56.88
2023-04-11T11:30:57.182Z,56.92
2023-04-11T11:33:42.211Z,57.29
2023-04-11T11:36:28.722Z,58.98
2023-04-11T11:39:14.250Z,60.45
2023-04-11T11:50:57.642Z,66.41
2023-04-11T11:53:43.003Z,68.93
2023-04-11T11:56:28.136Z,73.34
2023-04-11T11:59:13.456Z,77.08
2023-04-11T12:01:58.691Z,79.56
2023-04-11T12:04:44.615Z,80.77
2023-04-11T12:07:34.424Z,82.16
2023-04-11T12:10:19.626Z,81.01
2023-04-11T12:13:23.221Z,82.25
2023-04-11T12:16:09.016Z,80.30
2023-04-11T12:18:58.345Z,80.18
2023-04-11T12:21:43.514Z,79.03
2023-04-11T12:24:28.554Z,78.30
2023-04-11T12:27:13.880Z,78.15
2023-04-11T12:32:45.303Z,76.28
2023-04-11T12:35:32.259Z,72.62
2023-04-11T12:38:18.249Z,72.27
2023-04-11T12:41:29.702Z,70.62
2023-04-11T12:44:08.662Z,68.14
2023-04-11T12:46:53.748Z,67.86
2023-04-11T12:49:40.002Z,67.55
2023-04-11T12:52:25.395Z,68.00
2023-04-11T12:55:10.495Z,68.24
2023-04-11T12:57:56.041Z,68.63
2023-04-11T13:00:41.328Z,69.66
2023-04-11T13:03:27.251Z,69.92
2023-04-11T13:06:12.814Z,69.80
2023-04-11T13:08:58.198Z,69.98
2023-04-11T13:11:43.647Z,69.51
2023-04-11T13:14:29.204Z,70.77
2023-04-11T13:17:14.073Z,71.30
2023-04-11T13:19:59.132Z,71.10
2023-04-11T13:22:44.593Z,72.12
2023-04-11T13:25:29.533Z,73.05
2023-04-11T13:28:14.790Z,74.95
2023-04-11T13:30:59.720Z,73.53
2023-04-11T13:33:47.341Z,75.13
2023-04-11T13:36:32.374Z,77.68
2023-04-11T13:39:17.702Z,82.84
2023-04-11T13:42:03.047Z,87.66
2023-04-11T13:44:48.369Z,91.31
2023-04-11T13:47:36.058Z,94.01
2023-04-11T13:50:23.785Z,95.69
2023-04-11T13:53:10.100Z,96.76
2023-04-11T13:55:55.660Z,97.06
2023-04-11T13:58:41.078Z,98.03
2023-04-11T14:01:26.331Z,97.95
2023-04-11T14:04:11.872Z,98.84
2023-04-11T14:06:57.312Z,98.14
2023-04-11T14:09:42.739Z,96.76
2023-04-11T14:12:27.538Z,94.87
2023-04-11T14:15:12.646Z,88.68
2023-04-11T14:17:57.958Z,84.65
2023-04-11T14:20:43.249Z,83.12
2023-04-11T14:23:29.224Z,82.97
2023-04-11T14:26:14.269Z,84.20
2023-04-11T14:28:59.439Z,85.53
2023-04-11T14:31:44.866Z,84.70
2023-04-11T14:34:30.086Z,83.29
2023-04-11T14:37:15.207Z,83.84
2023-04-11T14:40:11.226Z,84.71
2023-04-11T14:42:58.305Z,84.80
2023-04-11T14:45:43.343Z,84.17
2023-04-11T14:48:29.396Z,84.44
2023-04-11T14:51:14.286Z,85.15
2023-04-11T14:53:59.946Z,85.45
2023-04-11T14:56:45.404Z,86.55
2023-04-11T14:59:30.839Z,88.06
2023-04-11T15:02:15.895Z,89.25
2023-04-11T15:05:01.063Z,89.80
2023-04-11T15:07:48.070Z,91.16
2023-04-11T15:10:33.484Z,92.12
2023-04-11T15:13:18.747Z,92.68
2023-04-11T15:16:04.086Z,93.06
2023-04-11T15:18:49.846Z,94.37
2023-04-11T15:21:35.369Z,96.38
2023-04-11T15:24:21.480Z,97.00
2023-04-11T15:27:06.594Z,98.04
2023-04-11T15:29:51.845Z,99.68
2023-04-11T15:32:42.074Z,99.79
2023-04-11T15:35:27.413Z,99.88
2023-04-11T15:38:14.327Z,100.00
2023-04-11T15:41:02.519Z,100.00
2023-04-11T15:43:47.402Z,100.00
2023-04-11T15:46:32.554Z,100.00
2023-04-11T15:49:17.640Z,100.00
2023-04-11T15:52:02.585Z,100.00
2023-04-11T15:54:47.487Z,100.00
2023-04-11T15:57:32.963Z,100.00
2023-04-11T16:00:19.672Z,100.00
2023-04-11T16:03:06.334Z,100.00
2023-04-11T16:05:53.476Z,100.00
2023-04-11T16:08:38.713Z,100.00
2023-04-11T16:11:23.976Z,100.00
2023-04-11T16:14:11.077Z,100.00
2023-04-11T16:16:57.373Z,100.00
2023-04-11T16:19:42.569Z,100.00
2023-04-11T16:22:27.838Z,100.00
2023-04-11T16:25:14.652Z,100.00
2023-04-11T16:27:59.854Z,100.00
2023-04-11T16:30:45.257Z,100.00
2023-04-11T16:33:30.438Z,100.00
2023-04-11T16:36:15.839Z,100.00
2023-04-11T16:39:04.218Z,100.00
2023-04-11T16:41:49.636Z,100.00
2023-04-11T16:44:34.661Z,100.00
2023-04-11T16:47:20.540Z,100.00
2023-04-11T16:50:06.896Z,100.00
2023-04-11T16:52:52.192Z,100.00
2023-04-11T16:55:37.307Z,100.00
2023-04-11T16:58:22.825Z,100.00
2023-04-11T17:01:07.883Z,100.00
2023-04-11T17:03:53.947Z,100.00
2023-04-11T17:06:39.437Z,100.00
2023-04-11T17:09:24.809Z,100.00
2023-04-11T17:12:10.523Z,100.00
2023-04-11T17:14:56.007Z,100.00
2023-04-11T17:17:41.208Z,100.00
2023-04-11T17:20:26.508Z,100.00
2023-04-11T17:23:12.256Z,100.00
2023-04-11T17:25:58.401Z,100.00
2023-04-11T17:28:44.351Z,100.00
2023-04-11T17:31:29.660Z,100.00
2023-04-11T17:34:15.172Z,100.00
2023-04-11T17:37:00.512Z,100.00
2023-04-11T17:39:46.391Z,100.00
2023-04-11T17:42:31.505Z,100.00
2023-04-11T17:45:18.630Z,100.00
2023-04-11T17:48:08.070Z,100.00
2023-04-11T17:50:53.224Z,100.00
2023-04-11T17:53:38.256Z,100.00
2023-04-11T17:56:24.565Z,100.00
2023-04-11T17:59:09.682Z,100.00
2023-04-11T18:01:55.918Z,100.00
2023-04-11T18:04:42.522Z,100.00
2023-04-11T18:07:27.994Z,100.00
2023-04-11T18:10:21.958Z,100.00
2023-04-11T18:13:07.521Z,100.00
2023-04-11T18:15:53.025Z,100.00
2023-04-11T18:18:38.092Z,100.00
2023-04-11T18:21:22.846Z,100.00
2023-04-11T18:24:08.190Z,100.00
2023-04-11T18:26:53.385Z,100.00
2023-04-11T18:29:38.549Z,100.00
2023-04-11T18:32:27.043Z,100.00
2023-04-11T18:35:15.054Z,100.00
2023-04-11T18:38:00.307Z,100.00
2023-04-11T18:40:46.072Z,100.00
2023-04-11T18:43:31.594Z,100.00
2023-04-11T18:46:16.906Z,100.00
2023-04-11T18:49:04.534Z,100.00
2023-04-11T18:51:52.727Z,100.00
2023-04-11T18:54:37.973Z,100.00
2023-04-11T18:57:25.882Z,100.00
2023-04-11T19:00:18.516Z,100.00
2023-04-11T19:03:05.161Z,100.00
2023-04-11T19:05:51.685Z,100.00
2023-04-11T19:08:36.901Z,100.00
2023-04-11T19:11:22.258Z,100.00
2023-04-11T19:14:09.056Z,100.00
2023-04-11T19:16:56.002Z,100.00
2023-04-11T19:19:41.398Z,100.00
2023-04-11T19:22:26.464Z,100.00
2023-04-11T19:25:12.261Z,100.00
2023-04-11T19:27:57.284Z,100.00
2023-04-11T19:30:42.328Z,100.00
2023-04-11T19:33:27.335Z,100.00
2023-04-11T19:36:12.708Z,100.00
2023-04-11T19:38:58.009Z,100.00
2023-04-11T19:41:46.520Z,100.00
2023-04-11T19:44:31.781Z,100.00
2023-04-11T19:47:16.626Z,100.00
2023-04-11T19:50:02.471Z,100.00
2023-04-11T19:52:47.379Z,100.00
2023-04-11T19:55:32.924Z,100.00
2023-04-11T19:58:18.419Z,100.00
2023-04-11T20:01:04.752Z,100.00
2023-04-11T20:03:53.533Z,100.00
2023-04-11T20:06:38.686Z,100.00
2023-04-11T20:09:24.231Z,100.00
2023-04-11T20:12:09.197Z,100.00
2023-04-11T20:14:54.283Z,100.00
2023-04-11T20:17:39.407Z,100.00
2023-04-11T20:20:29.194Z,100.00
2023-04-11T20:23:15.881Z,100.00
2023-04-11T20:26:01.214Z,100.00
2023-04-11T20:28:46.261Z,100.00
2023-04-11T20:31:31.378Z,100.00
2023-04-11T20:34:16.850Z,100.00
2023-04-11T20:37:04.077Z,100.00
2023-04-11T20:39:50.887Z,100.00
2023-04-11T20:42:39.752Z,100.00
2023-04-11T20:45:27.990Z,100.00
2023-04-11T20:48:13.560Z,100.00
2023-04-11T20:51:01.666Z,100.00
2023-04-11T20:53:46.780Z,100.00
2023-04-11T20:56:35.343Z,100.00
2023-04-11T20:59:20.718Z,100.00
2023-04-11T21:02:06.000Z,100.00
2023-04-11T21:04:53.006Z,100.00
2023-04-11T21:07:38.911Z,100.00
2023-04-11T21:10:24.506Z,100.00
2023-04-11T21:13:09.731Z,100.00
2023-04-11T21:15:54.749Z,100.00
2023-04-11T21:18:40.055Z,100.00
2023-04-11T21:21:25.697Z,100.00
2023-04-11T21:24:11.004Z,100.00
2023-04-11T21:26:56.704Z,100.00
2023-04-11T21:29:41.976Z,100.00
2023-04-11T21:32:28.094Z,100.00
2023-04-11T21:35:13.630Z,100.00
2023-04-11T21:37:58.796Z,100.00
2023-04-11T21:40:44.073Z,100.00
2023-04-11T21:43:29.874Z,100.00
2023-04-11T21:46:14.950Z,100.00
2023-04-11T21:49:00.546Z,100.00
2023-04-11T21:51:45.707Z,100.00
2023-04-11T21:54:30.543Z,100.00
2023-04-11T21:57:15.504Z,100.00
2023-04-11T22:00:00.628Z,100.00
2023-04-11T22:02:46.231Z,100.00
2023-04-11T22:05:31.519Z,100.00
2023-04-11T22:08:20.127Z,100.00
2023-04-11T22:11:14.603Z,100.00
2023-04-11T22:14:00.911Z,100.00
2023-04-11T22:16:58.190Z,100.00
2023-04-11T22:19:44.063Z,100.00
2023-04-11T22:22:30.216Z,100.00
2023-04-11T22:25:18.137Z,100.00
2023-04-11T22:28:04.041Z,100.00
2023-04-11T22:30:49.411Z,100.00
2023-04-11T22:33:34.479Z,100.00
2023-04-11T22:36:19.680Z,100.00
2023-04-11T22:39:06.776Z,100.00
2023-04-11T22:41:53.433Z,100.00
2023-04-11T22:44:38.824Z,100.00
2023-04-11T22:47:24.137Z,100.00
2023-04-11T22:50:10.104Z,100.00
2023-04-11T22:52:55.601Z,100.00
2023-04-11T22:55:41.106Z,100.00
2023-04-11T22:58:26.234Z,100.00
2023-04-11T23:01:15.563Z,100.00
2023-04-11T23:04:01.529Z,100.00
2023-04-11T23:06:49.486Z,100.00
2023-04-11T23:09:34.608Z,100.00
2023-04-11T23:12:19.763Z,100.00
2023-04-11T23:15:05.855Z,100.00
2023-04-11T23:17:51.144Z,100.00
2023-04-11T23:20:37.310Z,100.00
2023-04-11T23:23:22.748Z,100.00
2023-04-11T23:26:07.741Z,100.00
2023-04-11T23:28:53.159Z,100.00
2023-04-11T23:31:38.292Z,100.00
2023-04-11T23:34:23.484Z,100.00
2023-04-11T23:37:09.153Z,100.00
2023-04-11T23:39:54.778Z,100.00
2023-04-11T23:42:40.486Z,100.00
2023-04-11T23:45:25.748Z,100.00
2023-04-11T23:48:10.918Z,100.00
2023-04-11T23:50:56.633Z,100.00
2023-04-11T23:53:42.774Z,100.00
2023-04-11T23:56:27.939Z,100.00
2023-04-11T23:59:13.155Z,100.00
